Weather reports worldwide

Advertisment
Wilhelminadorp aws, Netherlands (6323): temperature & dewpoint: 25.09.2020 01:00:00 - 01.10.2020 01:00:00 (CEST)Wilhelminadorp aws, Netherlands (6323): temperature 5cm & temperature -5cm: 25.09.2020 01:00:00 - 01.10.2020 01:00:00 (CEST)Wilhelminadorp aws, Netherlands (6323): temperature -20cm & temperature -100cm: 25.09.2020 01:00:00 - 01.10.2020 01:00:00 (CEST)Wilhelminadorp aws, Netherlands (6323): wind speed & gusts: 25.09.2020 01:00:00 - 01.10.2020 01:00:00 (CEST)Wilhelminadorp aws, Netherlands (6323): wind direction: 25.09.2020 01:00:00 - 01.10.2020 01:00:00 (CEST)Wilhelminadorp aws, Netherlands (6323): reduced air pressure: 25.09.2020 01:00:00 - 01.10.2020 01:00:00 (CEST)Wilhelminadorp aws, Netherlands (6323): precipitation: 25.09.2020 01:00:00 - 01.10.2020 01:00:00 (CEST)
Date & Time tt [°C] td [°C] tt 5cm [°C] tt -5cm [°C] tt -20cm [°C] tt -100cm [°C] ff [km/h] ff [kn] fx [km/h] fx [kn] dd ppp [hPa] rr [mm]
01.10.2020 01:00:00 16,1 14,3 15,7 15,7 15,9 15,7 18 10 29 16 SSE 1005,7 0,0
01.10.2020 00:00:00 16,0 14,2 15,5 15,8 16,0 15,7 14 8 25 14 SSE 1006,5 0,0
30.09.2020 23:00:00 16,2 14,4 15,8 16,0 16,0 15,7 18 10 29 16 SSE 1007,2 0,0
30.09.2020 22:00:00 16,3 14,3 15,8 16,1 16,0 15,7 14 8 22 12 SSE 1007,9 0,0
30.09.2020 21:00:00 16,8 14,2 16,2 16,3 16,1 15,7 14 8 22 12 SSE 1008,3 0,0
30.09.2020 20:00:00 17,1 14,3 16,6 16,5 16,0 15,7 11 6 25 14 S 1008,9 0,0
30.09.2020 19:00:00 17,6 14,4 17,1 16,7 16,0 15,7 14 8 22 12 S 1009,2 0,0
30.09.2020 18:00:00 18,2 14,1 17,8 16,7 15,8 15,7 14 8 29 16 S 1009,6 0,0
30.09.2020 17:00:00 18,4 15,0 18,4 16,6 15,7 15,7 14 8 25 14 S 1010,2 0,0
30.09.2020 16:00:00 17,8 14,8 18,0 16,3 15,5 15,7 14 8 25 14 S 1010,7 0,0
30.09.2020 15:00:00 17,3 14,8 17,3 16,1 15,3 15,7 14 8 32 18 SSW 1011,2 0,0
30.09.2020 14:00:00 17,5 15,4 17,5 15,8 15,2 15,7 14 8 25 14 SSW 1011,7 0,0
30.09.2020 13:00:00 17,3 15,3 17,7 15,4 15,1 15,7 18 10 25 14 S 1012,1 0,0
30.09.2020 12:00:00 16,0 15,3 16,2 15,0 15,0 15,7 11 6 18 10 S 1012,8 0,0
30.09.2020 11:00:00 15,3 14,9 15,4 14,8 15,0 15,7 7 4 14 8 S 1013,2 0,2
30.09.2020 10:00:00 14,6 14,5 14,6 14,6 15,0 15,7 7 4 14 8 S 1013,7 1,0
30.09.2020 09:00:00 14,2 14,0 14,1 14,5 15,0 15,7 7 4 14 8 S 1014,0 0,6
30.09.2020 08:00:00 14,0 13,4 13,7 14,5 15,1 15,7 11 6 14 8 S 1013,9 0,0
30.09.2020 07:00:00 13,9 13,4 13,4 14,5 15,1 15,7 11 6 14 8 S 1013,9 0,0
30.09.2020 06:00:00 13,7 13,5 13,3 14,6 15,2 15,7 7 4 14 8 S 1014,3 0,0
30.09.2020 05:00:00 13,7 13,4 13,4 14,6 15,3 15,7 7 4 14 8 S 1014,6 0,0
30.09.2020 04:00:00 13,9 13,5 13,4 14,8 15,4 15,7 11 6 18 10 S 1014,9 0,0
30.09.2020 03:00:00 13,5 13,2 13,0 14,9 15,6 15,7 11 6 14 8 SSW 1015,4 0,0
30.09.2020 02:00:00 13,1 12,8 12,6 15,1 15,7 15,7 11 6 18 10 SSW 1015,6 0,0
30.09.2020 01:00:00 13,3 12,8 12,5 15,4 15,9 15,7 11 6 18 10 SSW 1015,9 0,0
30.09.2020 00:00:00 13,9 13,1 13,3 15,7 16,0 15,7 11 6 18 10 SSW 1016,0 0,0
29.09.2020 23:00:00 14,3 13,3 13,6 16,0 16,1 15,7 7 4 14 8 SSW 1016,2 0,0
29.09.2020 22:00:00 15,1 14,0 14,3 16,3 16,1 15,7 11 6 18 10 SW 1016,2 0,0
29.09.2020 21:00:00 16,2 15,3 15,8 16,5 16,1 15,7 11 6 18 10 WSW 1016,0 0,0
29.09.2020 20:00:00 16,4 15,4 16,0 16,8 16,1 15,7 11 6 14 8 SSW 1015,9 2,6
29.09.2020 19:00:00 16,9 15,8 16,7 17,0 16,0 15,7 11 6 18 10 S 1015,6 0,0
29.09.2020 18:00:00 17,1 15,6 17,0 17,1 15,9 15,7 11 6 18 10 S 1015,6 0,0
29.09.2020 17:00:00 17,6 14,5 17,7 17,1 15,6 15,7 11 6 14 8 SSW 1015,7 0,1
29.09.2020 16:00:00 17,9 14,5 18,4 16,9 15,3 15,7 11 6 18 10 SSW 1015,7 0,0
29.09.2020 15:00:00 17,6 12,8 18,6 16,3 15,0 15,7 11 6 18 10 WSW 1016,1 0,0
29.09.2020 14:00:00 16,6 13,6 17,0 15,9 14,7 15,7 11 6 18 10 W 1016,3 0,1
29.09.2020 13:00:00 18,3 12,0 19,6 15,1 14,5 15,7 11 6 14 8 W 1016,3 0,0
29.09.2020 12:00:00 16,5 12,1 17,4 14,4 14,4 15,7 11 6 14 8 WSW 1016,3 0,0
29.09.2020 11:00:00 15,4 12,4 15,3 13,9 14,3 15,7 7 4 11 6 SW 1016,0 0,0
29.09.2020 10:00:00 14,9 12,4 14,7 13,5 14,4 15,7 7 4 11 6 SW 1015,6 0,0
29.09.2020 09:00:00 12,0 9,2 10,8 13,5 14,6 15,7 7 4 11 6 SSW 1015,1 0,0
29.09.2020 08:00:00 9,2 8,5 8,6 13,8 14,8 15,7 7 4 11 6 SW 1014,6 0,0
29.09.2020 07:00:00 9,9 8,6 9,0 14,2 14,9 15,7 7 4 11 6 WSW 1014,3 0,0
29.09.2020 06:00:00 11,1 9,9 10,5 14,5 14,9 15,7 7 4 11 6 WSW 1014,1 0,0
29.09.2020 05:00:00 12,9 11,4 12,4 14,6 15,0 15,7 11 6 11 6 W 1013,8 0,0
29.09.2020 04:00:00 13,5 11,8 13,0 14,7 15,0 15,7 7 4 11 6 WNW 1013,6 0,0
29.09.2020 03:00:00 13,6 13,3 13,5 14,8 15,1 15,7 4 2 11 6 W 1013,4 0,0
29.09.2020 02:00:00 13,7 12,9 13,5 14,8 15,1 15,7 11 6 18 10 NW 1013,3 0,8
29.09.2020 01:00:00 13,8 13,1 13,7 14,9 15,2 15,7 14 8 29 16 NW 1013,1 0,3
29.09.2020 00:00:00 14,2 13,7 14,0 15,0 15,2 15,7 22 12 32 18 WNW 1013,1 0,2
28.09.2020 23:00:00 14,2 14,0 14,1 15,1 15,2 15,7 25 14 36 19 WNW 1012,7 2,1
28.09.2020 22:00:00 14,6 14,3 14,4 15,2 15,2 15,7 25 14 36 19 NW 1012,2 0,4
28.09.2020 21:00:00 14,7 14,6 14,7 15,2 15,2 15,7 29 16 40 21 NW 1011,8 0,6
28.09.2020 20:00:00 15,1 14,9 15,0 15,3 15,2 15,7 22 12 32 18 NW 1011,1 0,1
28.09.2020 19:00:00 15,1 14,9 15,0 15,4 15,2 15,7 25 14 36 19 NW 1010,4 0,2
28.09.2020 18:00:00 15,2 15,0 15,2 15,4 15,2 15,7 25 14 43 23 NW 1009,7 0,3
28.09.2020 17:00:00 15,8 15,5 15,7 15,4 15,2 15,8 25 14 36 19 NW 1009,4 0,1
28.09.2020 16:00:00 15,9 15,8 15,9 15,4 15,1 15,8 22 12 29 16 NW 1009,0 0,5
28.09.2020 15:00:00 16,1 16,0 16,1 15,4 15,0 15,8 22 12 32 18 NW 1008,9 0,5
28.09.2020 14:00:00 16,3 16,2 16,3 15,2 14,9 15,8 25 14 36 19 NNW 1008,7 0,4
28.09.2020 13:00:00 16,4 16,3 16,3 15,1 14,9 15,8 22 12 36 19 NNW 1008,5 0,6
28.09.2020 12:00:00 16,4 16,3 16,4 15,0 14,8 15,8 25 14 32 18 NNW 1008,1 0,4
28.09.2020 11:00:00 16,3 16,2 16,3 14,8 14,8 15,8 22 12 32 18 NNW 1008,0 0,2
28.09.2020 10:00:00 16,2 16,1 16,1 14,7 14,7 15,8 25 14 36 19 NNW 1007,7 0,3
28.09.2020 09:00:00 16,2 16,1 16,0 14,6 14,7 15,8 25 14 36 19 NNW 1007,5 0,2
28.09.2020 08:00:00 16,0 15,9 15,0 14,5 14,7 15,8 22 12 29 16 NNW 1007,3 1,3
28.09.2020 07:00:00 13,8 13,7 13,8 14,5 14,8 15,8 7 4 14 8 SSW 1007,3 1,7
28.09.2020 06:00:00 13,7 13,6 13,7 14,6 14,8 15,8 7 4 14 8 SSW 1007,4 1,3
28.09.2020 05:00:00 13,7 13,6 13,6 14,6 14,8 15,8 7 4 11 6 SW 1007,7 0,0
28.09.2020 04:00:00 13,5 13,4 13,5 14,6 14,8 15,8 7 4 7 4 WSW 1008,0 0,0
28.09.2020 03:00:00 13,4 13,4 13,5 14,7 14,9 15,8 4 2 7 4 W 1008,3 0,0
28.09.2020 02:00:00 13,5 13,3 13,5 14,8 14,9 15,9 4 2 7 4 W 1008,3 0,0
28.09.2020 01:00:00 13,4 13,2 13,4 14,8 15,0 15,9 4 2 4 2 WNW 1008,2 0,0
28.09.2020 00:00:00 13,3 13,3 13,4 14,9 15,0 15,9 4 2 11 6 W 1008,1 0,0
27.09.2020 23:00:00 13,4 13,3 13,5 15,0 15,0 15,9 4 2 7 4 W 1007,9 0,4
27.09.2020 22:00:00 13,5 13,4 13,5 15,2 15,1 15,9 4 2 11 6 W 1007,7 0,2
27.09.2020 21:00:00 13,8 13,2 13,8 15,3 15,1 15,9 7 4 11 6 WNW 1007,2 0,0
27.09.2020 20:00:00 14,4 12,4 14,2 15,5 15,1 15,9 4 2 7 4 N 1006,9 0,0
27.09.2020 19:00:00 14,9 12,4 14,7 15,7 15,0 15,9 4 2 7 4 ESE 1006,7 0,0
27.09.2020 18:00:00 15,2 12,3 15,1 15,8 14,9 16,0 7 4 18 10 E 1006,3 0,0
27.09.2020 17:00:00 15,8 12,1 15,8 15,9 14,7 16,0 11 6 25 14 ENE 1005,6 0,0
27.09.2020 16:00:00 16,3 12,0 16,8 15,7 14,5 16,0 18 10 32 18 NE 1005,2 0,0
27.09.2020 15:00:00 16,4 12,6 16,5 15,4 14,3 16,0 25 14 36 19 NE 1004,5 0,0
27.09.2020 14:00:00 16,1 12,5 16,2 15,0 14,1 16,0 25 14 36 19 NE 1004,1 0,0
27.09.2020 13:00:00 16,2 12,4 16,5 14,5 13,9 16,0 25 14 40 21 NE 1003,4 0,0
27.09.2020 12:00:00 15,8 12,8 15,9 14,2 13,8 16,1 25 14 47 25 NE 1002,5 0,0
27.09.2020 11:00:00 16,4 13,0 16,2 14,0 13,6 16,1 36 19 50 27 NNE 1001,8 0,0
27.09.2020 10:00:00 17,0 15,5 16,8 13,7 13,5 16,1 29 16 50 27 N 1000,4 0,1
27.09.2020 09:00:00 16,9 15,6 16,4 13,5 13,4 16,1 29 16 47 25 N 999,5 0,0
27.09.2020 08:00:00 16,1 15,4 15,7 13,3 13,3 16,1 32 18 58 31 N 998,8 0,3
27.09.2020 07:00:00 15,5 14,9 15,1 13,2 13,3 16,2 43 23 79 43 N 998,4 0,8
27.09.2020 06:00:00 14,8 14,4 14,5 13,0 13,2 16,2 50 27 83 45 N 998,1 1,0
27.09.2020 05:00:00 14,2 13,6 14,0 12,9 13,2 16,2 54 29 79 43 NNW 998,3 0,7
27.09.2020 04:00:00 14,0 12,9 13,9 12,8 13,1 16,2 54 29 72 39 NNW 998,9 1,2
27.09.2020 03:00:00 13,6 12,6 13,4 12,8 13,1 16,3 47 25 65 35 NNW 999,7 0,9
27.09.2020 02:00:00 13,2 12,3 13,0 12,8 13,1 16,3 47 25 68 37 NNW 1000,7 3,8
27.09.2020 01:00:00 13,0 12,5 12,8 12,8 13,1 16,3 43 23 65 35 N 1001,7 4,0
27.09.2020 00:00:00 13,2 11,8 12,8 12,8 13,1 16,3 40 21 65 35 NNW 1001,7 0,2
26.09.2020 23:00:00 13,4 12,4 13,2 12,8 13,0 16,3 32 18 50 27 N 1002,4 2,0
26.09.2020 22:00:00 13,4 12,4 13,2 12,8 13,0 16,4 29 16 50 27 N 1002,8 0,9
26.09.2020 21:00:00 14,2 11,9 13,9 12,8 12,9 16,4 22 12 32 18 NNW 1002,4 0,0
26.09.2020 20:00:00 14,0 12,0 13,7 12,9 12,8 16,4 18 10 32 18 NNW 1002,2 0,0
26.09.2020 19:00:00 14,2 11,3 13,7 13,0 12,6 16,4 11 6 29 16 NW 1002,0 0,0
26.09.2020 18:00:00 15,3 10,7 15,2 12,9 12,3 16,5 18 10 29 16 NNW 1001,9 0,0
26.09.2020 17:00:00 15,5 10,9 15,4 12,5 12,0 16,5 22 12 32 18 NNW 1001,7 0,0
26.09.2020 16:00:00 15,6 11,7 16,0 11,6 11,8 16,5 18 10 22 12 NNW 1001,4 0,0
26.09.2020 15:00:00 13,4 11,6 13,6 10,9 11,7 16,5 11 6 22 12 W 1001,2 0,7
26.09.2020 14:00:00 11,2 9,8 10,6 10,6 11,8 16,5 14 8 36 19 W 1001,8 5,5
26.09.2020 13:00:00 11,3 9,4 10,4 10,4 12,1 16,5 7 4 32 18 W 1001,7 11,6
26.09.2020 12:00:00 11,6 9,0 11,0 10,8 12,7 16,5 18 10 47 25 NNE 1000,6 6,4
26.09.2020 11:00:00 8,7 8,1 8,1 12,0 13,1 16,6 18 10 36 19 N 1001,1 13,7
26.09.2020 10:00:00 10,8 9,4 10,7 12,2 13,2 16,6 29 16 36 19 NW 1000,3 3,1
26.09.2020 09:00:00 10,9 9,4 10,6 12,2 13,3 16,6 25 14 54 29 NNW 999,8 3,9
26.09.2020 08:00:00 12,2 10,2 11,1 12,3 13,4 16,6 32 18 61 33 NNW 998,8 2,3
26.09.2020 07:00:00 11,0 9,6 10,5 12,4 13,5 16,6 32 18 54 29 NNW 999,0 3,3
26.09.2020 06:00:00 11,6 9,7 11,2 12,5 13,5 16,6 36 19 54 29 NNW 998,3 2,5
26.09.2020 05:00:00 11,3 9,9 11,1 12,6 13,6 16,6 40 21 65 35 NNW 997,2 3,7
26.09.2020 04:00:00 12,3 10,4 11,8 12,6 13,6 16,6 40 21 72 39 NW 996,5 0,3
26.09.2020 03:00:00 12,6 10,7 12,0 12,6 13,7 16,6 54 29 83 45 NW 995,5 9,1
26.09.2020 02:00:00 11,9 11,7 11,9 12,8 13,9 16,7 58 31 90 49 NW 994,6 7,1
26.09.2020 01:00:00 12,7 11,4 12,4 12,8 13,9 16,7 58 31 90 49 NW 993,5 4,5
26.09.2020 00:00:00 12,7 10,8 11,8 12,9 14,0 16,7 58 31 86 47 WNW 993,2 1,3
25.09.2020 23:00:00 11,4 10,3 10,9 12,9 14,1 16,7 54 29 86 47 WNW 994,8 1,1
25.09.2020 22:00:00 11,8 9,4 11,2 13,0 14,2 16,7 65 35 86 47 WNW 994,6 0,5
25.09.2020 21:00:00 12,2 9,3 11,8 13,2 14,3 16,7 65 35 94 51 WNW 994,2 2,7
25.09.2020 20:00:00 11,9 10,8 11,7 13,3 14,4 16,7 47 25 72 39 WNW 993,7 2,1
25.09.2020 19:00:00 11,1 9,7 10,8 13,5 14,5 16,7 54 29 83 45 W 993,8 1,1
25.09.2020 18:00:00 11,6 8,8 11,2 13,7 14,5 16,7 50 27 79 43 W 994,4 0,1
25.09.2020 17:00:00 12,1 8,7 11,7 13,9 14,5 16,7 54 29 76 41 W 994,2 0,8
25.09.2020 16:00:00 10,8 9,3 10,9 14,1 14,5 16,7 47 25 65 35 W 994,7 0,6
25.09.2020 15:00:00 11,3 8,9 11,3 14,0 14,4 16,7 43 23 58 31 W 994,8 0,5
25.09.2020 14:00:00 11,4 9,5 11,4 13,9 14,2 16,8 32 18 50 27 W 994,8 0,7
25.09.2020 13:00:00 12,3 8,3 12,7 13,5 14,1 16,8 36 19 47 25 W 994,8 1,5
25.09.2020 12:00:00 11,3 9,5 11,7 13,2 14,1 16,8 22 12 40 21 SW 994,9 0,3
25.09.2020 11:00:00 12,1 8,5 12,7 12,7 14,1 16,8 25 14 36 19 SW 994,7 0,0
25.09.2020 10:00:00 10,8 7,8 10,7 12,4 14,2 16,8 25 14 40 21 SW 994,2 0,0
25.09.2020 09:00:00 10,0 7,1 9,7 12,4 14,4 16,8 22 12 36 19 SSW 994,2 0,0
25.09.2020 08:00:00 8,9 6,5 8,4 12,7 14,6 16,8 25 14 40 21 SSW 994,1 0,0
25.09.2020 07:00:00 8,7 6,3 8,2 12,9 14,8 16,8 22 12 36 19 SSW 994,3 0,0
25.09.2020 06:00:00 9,1 6,8 8,7 13,3 15,0 16,8 22 12 32 18 SSW 993,9 0,0
25.09.2020 05:00:00 9,7 7,4 9,2 13,6 15,2 16,8 18 10 40 21 SW 993,5 0,0
25.09.2020 04:00:00 10,2 7,2 9,7 13,9 15,4 16,8 22 12 36 19 SSW 994,2 0,0
25.09.2020 03:00:00 10,2 7,3 9,7 14,2 15,6 16,8 22 12 43 23 SSW 994,1 0,0
25.09.2020 02:00:00 11,1 7,8 10,7 14,6 15,7 16,8 22 12 40 21 SW 994,7 0,0
25.09.2020 01:00:00 11,9 8,6 11,6 14,9 15,9 16,8 22 12 40 21 SW 994,3 0,0

tt = temperature
td = dewpoint
tt 5cm = temperature 5cm
tt -5cm = temperature -5cm
tt -20cm = temperature -20cm
tt -100cm = temperature -100cm
ff = wind speed
fx = gusts
dd = wind direction
ppp = reduced air pressure
rr = precipitation

Next stations